»·PEaware :: ASA1066 KSEA-KABQ

ASA1066 :: KSEA-KABQ

FLIGHT INFORMATION

Flight Status: Arrived
Operator:
Alaska Airlines
More flights by this operator :: More flights under this callsign
Pilot: Michael F. (26726)
Aircraft: BOEING 737-800
(B738)
More flights by this aircraft type
Origin: KSEA Seattle-Tacoma Intl
United States
Destination: KABQ Albuquerque Intl Sunport
United States
More flights between these airports :: More routes between these airports
Route: SUMMA2 SUMMA J54 BKE TCH RSK ROSEI LOWBO3
File this flight plan on PilotEdge
Remarks: RMK / SIMBRIEF
Altitude:
(Current/Filed)
35,000ft
Speed:
(Current/Filed)
463kts
Departed: 14-Feb-21 02:50 PM
Arrived: 14-Feb-21 04:57 PM
Distance/Time
Traveled:
1023nm/2:06
Distance/Time
To Go:
Arrived

Flight Plot

Page will automatically refresh every two minutes.

Flight plan parsing failed; only flown route is shown


Map Options




Map Legend


Flown Route
Filed Route
Departure Airport
Arrival Airport
Navaid (VOR, NDB)
Fix

Horizontal Profiles

Position Reports

Time Latitude Longitude Heading Altitude Ground
Speed
14-Feb-21 14:17 47.449251 -122.302212 232 442ft 0kts
14-Feb-21 14:18 47.449251 -122.302212 232 442ft 0kts
14-Feb-21 14:19 47.449251 -122.302212 232 442ft 0kts
14-Feb-21 14:20 47.449251 -122.302212 232 442ft 0kts
14-Feb-21 14:21 47.449251 -122.302212 232 442ft 0kts
14-Feb-21 14:22 47.449251 -122.302212 232 442ft 0kts
14-Feb-21 14:23 47.449251 -122.302212 232 442ft 0kts
14-Feb-21 14:24 47.449251 -122.302212 232 442ft 0kts
14-Feb-21 14:25 47.449251 -122.302212 232 442ft 0kts
14-Feb-21 14:26 47.449251 -122.302212 232 442ft 0kts
14-Feb-21 14:27 47.449251 -122.302212 232 442ft 0kts
14-Feb-21 14:28 47.449251 -122.302212 232 442ft 0kts
14-Feb-21 14:29 47.449251 -122.302212 232 442ft 0kts
14-Feb-21 14:30 47.449251 -122.302212 232 442ft 0kts
14-Feb-21 14:31 47.449251 -122.302212 232 442ft 0kts
14-Feb-21 14:32 47.449251 -122.302212 232 442ft 0kts
14-Feb-21 14:33 47.449251 -122.302212 232 442ft 0kts
14-Feb-21 14:34 47.449251 -122.302212 232 442ft 0kts
14-Feb-21 14:35 47.449251 -122.302212 232 442ft 0kts
14-Feb-21 14:36 47.449511 -122.301394 291 442ft 2kts
14-Feb-21 14:37 47.449319 -122.300969 309 442ft 0kts
14-Feb-21 14:38 47.449319 -122.300969 309 442ft 0kts
14-Feb-21 14:39 47.449319 -122.300969 309 442ft 0kts
14-Feb-21 14:40 47.449319 -122.300969 309 442ft 0kts
14-Feb-21 14:41 47.449319 -122.300969 309 442ft 0kts
14-Feb-21 14:42 47.450330 -122.303091 273 442ft 11kts
14-Feb-21 14:43 47.450085 -122.304334 266 442ft 5kts
14-Feb-21 14:44 47.451707 -122.306265 1 442ft 10kts
14-Feb-21 14:45 47.455385 -122.306251 0 442ft 16kts
14-Feb-21 14:46 47.459860 -122.306191 0 442ft 14kts
14-Feb-21 14:47 47.463309 -122.306155 353 442ft 4kts
14-Feb-21 14:48 47.463368 -122.306169 349 442ft 1kts
14-Feb-21 14:49 47.459087 -122.307762 179 442ft 83kts
14-Feb-21 14:50 47.414990 -122.308406 178 2303ft 187kts
14-Feb-21 14:51 47.354332 -122.308858 181 4714ft 246kts
14-Feb-21 14:52 47.284416 -122.309766 183 8109ft 257kts
14-Feb-21 14:53 47.213493 -122.280071 151 10585ft 286kts
14-Feb-21 14:54 47.138734 -122.215672 167 12146ft 343kts
14-Feb-21 14:55 47.041568 -122.173268 168 14597ft 378kts
14-Feb-21 14:56 46.937139 -122.127450 168 17294ft 404kts
14-Feb-21 14:57 46.825579 -122.078899 170 19753ft 432kts
14-Feb-21 14:58 46.706513 -122.027282 171 21964ft 459kts
14-Feb-21 14:59 46.594786 -121.929400 127 24147ft 504kts
14-Feb-21 15:00 46.522541 -121.747376 119 25736ft 532kts
14-Feb-21 15:01 46.446532 -121.558131 119 27290ft 553kts
14-Feb-21 15:02 46.367861 -121.361793 117 28704ft 571kts
14-Feb-21 15:03 46.286447 -121.160490 118 29796ft 589kts
14-Feb-21 15:04 46.202747 -120.955229 118 31016ft 597kts
14-Feb-21 15:05 46.117913 -120.748542 117 32243ft 601kts
14-Feb-21 15:06 46.031695 -120.540113 116 33267ft 606kts
14-Feb-21 15:07 45.944562 -120.331045 116 34176ft 612kts
14-Feb-21 15:08 45.856820 -120.122161 117 35139ft 612kts
14-Feb-21 15:09 45.768586 -119.913675 117 35140ft 605kts
14-Feb-21 15:10 45.681322 -119.708798 117 35140ft 601kts
14-Feb-21 15:11 45.594415 -119.506437 117 35131ft 596kts
14-Feb-21 15:12 45.507697 -119.305838 117 35120ft 590kts
14-Feb-21 15:13 45.421357 -119.107527 117 35100ft 585kts
14-Feb-21 15:15 45.335699 -118.912184 117 35079ft 581kts
14-Feb-21 15:16 45.249956 -118.717962 118 35005ft 578kts
14-Feb-21 15:17 45.164498 -118.525713 118 34970ft 576kts
14-Feb-21 15:18 45.078603 -118.333789 118 34970ft 576kts
14-Feb-21 15:19 44.992489 -118.142648 118 34980ft 577kts
14-Feb-21 15:20 44.905844 -117.951647 118 34983ft 578kts
14-Feb-21 15:21 44.814763 -117.766747 128 35005ft 574kts
14-Feb-21 15:22 44.709055 -117.596376 129 34984ft 579kts
14-Feb-21 15:23 44.603062 -117.426137 129 34989ft 578kts
14-Feb-21 15:24 44.496857 -117.257031 129 35003ft 575kts
14-Feb-21 15:25 44.391396 -117.089953 129 35023ft 572kts
14-Feb-21 15:26 44.285933 -116.923856 129 35047ft 568kts
14-Feb-21 15:27 44.181447 -116.760272 129 35056ft 563kts
14-Feb-21 15:28 44.077288 -116.598129 130 35055ft 560kts
14-Feb-21 15:28 43.990982 -116.464478 129 35040ft 557kts
14-Feb-21 15:30 43.869488 -116.277410 130 35035ft 558kts
14-Feb-21 15:30 43.783079 -116.145082 130 35031ft 556kts
14-Feb-21 15:32 43.661722 -115.960304 130 35027ft 556kts
14-Feb-21 15:32 43.575045 -115.829060 130 35025ft 553kts
14-Feb-21 15:33 43.470988 -115.672289 130 35021ft 553kts
14-Feb-21 15:34 43.367123 -115.516659 130 35022ft 553kts
14-Feb-21 15:36 43.245627 -115.335699 130 35025ft 551kts
14-Feb-21 15:36 43.158846 -115.207130 130 35030ft 551kts
14-Feb-21 15:37 43.054777 -115.053718 130 35035ft 549kts
14-Feb-21 15:38 42.950409 -114.900693 130 35043ft 547kts
14-Feb-21 15:39 42.846658 -114.749386 130 35053ft 545kts
14-Feb-21 15:40 42.742944 -114.598890 130 35022ft 546kts
14-Feb-21 15:41 42.638881 -114.448711 130 35016ft 543kts
14-Feb-21 15:42 42.535220 -114.299891 130 35011ft 542kts
14-Feb-21 15:43 42.430967 -114.150970 130 35012ft 543kts
14-Feb-21 15:44 42.326896 -114.003081 130 35008ft 542kts
14-Feb-21 15:45 42.223013 -113.856233 130 35018ft 540kts
14-Feb-21 15:46 42.118964 -113.709883 131 35007ft 540kts
14-Feb-21 15:47 42.015016 -113.564413 131 35018ft 538kts
14-Feb-21 15:48 41.910844 -113.419350 131 35008ft 540kts
14-Feb-21 15:49 41.806450 -113.274734 131 35016ft 536kts
14-Feb-21 15:50 41.702769 -113.131801 131 35015ft 534kts
14-Feb-21 15:51 41.599440 -112.990049 131 35025ft 531kts
14-Feb-21 15:52 41.496618 -112.849689 131 35020ft 527kts
14-Feb-21 15:53 41.394050 -112.710338 131 35022ft 524kts
14-Feb-21 15:54 41.292050 -112.572414 131 35022ft 523kts
14-Feb-21 15:55 41.189781 -112.434790 132 35019ft 522kts
14-Feb-21 15:56 41.087674 -112.298029 132 35015ft 521kts
14-Feb-21 15:57 40.999510 -112.180452 132 35018ft 521kts
14-Feb-21 15:58 40.897080 -112.044459 132 35019ft 522kts
14-Feb-21 15:59 40.788055 -111.918859 141 35026ft 513kts
14-Feb-21 16:00 40.674925 -111.804261 141 35021ft 513kts
14-Feb-21 16:01 40.561617 -111.689664 141 35010ft 514kts
14-Feb-21 16:02 40.448079 -111.575385 141 34989ft 514kts
14-Feb-21 16:03 40.334539 -111.461625 141 34984ft 513kts
14-Feb-21 16:04 40.221229 -111.348571 141 34982ft 512kts
14-Feb-21 16:05 40.107856 -111.235948 141 34968ft 509kts
14-Feb-21 16:06 39.995411 -111.124719 142 34959ft 507kts
14-Feb-21 16:07 39.882567 -111.013570 142 34944ft 507kts
14-Feb-21 16:08 39.770195 -110.903349 142 34924ft 504kts
14-Feb-21 16:09 39.658682 -110.794432 142 34906ft 502kts
14-Feb-21 16:10 39.546919 -110.685715 142 34901ft 499kts
14-Feb-21 16:11 39.435705 -110.577971 142 34900ft 502kts
14-Feb-21 16:12 39.321222 -110.467492 142 34916ft 526kts
14-Feb-21 16:13 39.201399 -110.352433 142 34924ft 543kts
14-Feb-21 16:14 39.080389 -110.236708 142 34935ft 538kts
14-Feb-21 16:15 38.960189 -110.122222 142 34929ft 539kts
14-Feb-21 16:16 38.839683 -110.007975 142 34912ft 540kts
14-Feb-21 16:17 38.720103 -109.895110 142 34925ft 528kts
14-Feb-21 16:18 38.601539 -109.783616 142 34922ft 530kts
14-Feb-21 16:19 38.482209 -109.671902 142 34919ft 530kts
14-Feb-21 16:20 38.363381 -109.561134 142 34911ft 530kts
14-Feb-21 16:21 38.243857 -109.450172 142 34897ft 531kts
14-Feb-21 16:22 38.124528 -109.339840 143 34903ft 529kts
14-Feb-21 16:23 38.005625 -109.230379 143 34907ft 526kts
14-Feb-21 16:24 37.886613 -109.121248 143 34909ft 531kts
14-Feb-21 16:25 37.767423 -109.012408 143 34907ft 524kts
14-Feb-21 16:26 37.649724 -108.905347 143 34890ft 521kts
14-Feb-21 16:27 37.531904 -108.798620 143 34892ft 519kts
14-Feb-21 16:28 37.414837 -108.692979 144 34875ft 518kts
14-Feb-21 16:29 37.297835 -108.587823 144 34880ft 517kts
14-Feb-21 16:30 37.180766 -108.483003 144 34884ft 517kts
14-Feb-21 16:31 37.063725 -108.378625 144 34881ft 515kts
14-Feb-21 16:32 36.946774 -108.274727 144 34884ft 515kts
14-Feb-21 16:33 36.829728 -108.171143 144 34889ft 515kts
14-Feb-21 16:34 36.712268 -108.068421 146 34895ft 515kts
14-Feb-21 16:35 36.592347 -107.970718 146 34887ft 514kts
14-Feb-21 16:36 36.474185 -107.873071 146 34888ft 508kts
14-Feb-21 16:37 36.356496 -107.776544 146 33615ft 507kts
14-Feb-21 16:38 36.239416 -107.680940 147 31028ft 498kts
14-Feb-21 16:39 36.123403 -107.590082 157 28987ft 492kts
14-Feb-21 16:40 35.992851 -107.544322 167 26730ft 478kts
14-Feb-21 16:41 35.867523 -107.504136 166 24631ft 452kts
14-Feb-21 16:42 35.749076 -107.464707 166 22647ft 430kts
14-Feb-21 16:43 35.635851 -107.428912 167 20739ft 413kts
14-Feb-21 16:44 35.526490 -107.393863 168 18896ft 398kts
14-Feb-21 16:45 35.423746 -107.350773 143 17115ft 388kts
14-Feb-21 16:46 35.363753 -107.248786 122 15384ft 342kts
14-Feb-21 16:47 35.315256 -107.153656 123 14943ft 328kts
14-Feb-21 16:48 35.259469 -107.067145 138 14867ft 328kts
14-Feb-21 16:49 35.193311 -106.992100 140 12610ft 312kts
14-Feb-21 16:50 35.132841 -106.921808 137 10506ft 285kts
14-Feb-21 16:51 35.089533 -106.866090 132 8878ft 268kts
14-Feb-21 16:52 35.049362 -106.806595 125 8122ft 237kts
14-Feb-21 16:53 35.044480 -106.732345 92 7147ft 216kts
14-Feb-21 16:54 35.044840 -106.670427 95 6202ft 150kts
14-Feb-21 16:55 35.044323 -106.622131 92 5423ft 143kts
14-Feb-21 16:56 35.045013 -106.598609 315 5321ft 6kts
14-Feb-21 16:57 35.045176 -106.598879 301 5321ft 0kts
14-Feb-21 16:58 35.045703 -106.601431 269 5321ft 12kts
14-Feb-21 16:59 35.045727 -106.605335 269 5321ft 14kts
14-Feb-21 17:00 35.045778 -106.611973 268 5321ft 17kts
14-Feb-21 17:01 35.045935 -106.615902 267 5321ft 15kts
14-Feb-21 17:02 35.045679 -106.618216 276 5321ft 9kts
14-Feb-21 17:03 35.046873 -106.618444 40 5321ft 3kts
14-Feb-21 17:05 35.046912 -106.618405 39 5321ft 0kts
14-Feb-21 17:06 35.046912 -106.618405 39 5321ft 0kts
14-Feb-21 17:07 35.046912 -106.618405 39 5321ft 0kts
14-Feb-21 17:08 35.046912 -106.618405 39 5321ft 0kts
14-Feb-21 17:09 35.046912 -106.618405 39 5321ft 0kts
14-Feb-21 17:10 35.046912 -106.618405 39 5321ft 0kts
14-Feb-21 17:11 35.046912 -106.618405 39 5321ft 0kts

Navigation Log

Ident Type
Flight plan parsing failed, navigation log unavailable